Aérodrome :
LOGIN :

S'inscrire | Disclaimer

   EN    FR    IT 

 










Légende :    VFR   VFR Marginal   IFR   IFR Intensif   IFR Très Intensif
Visi : 
Plafond : 
>= 8 km
>= 3000ft
5 à 8 km
1000 à 3000 ft
1500m à 5 km
500 à 1000 ft
800 à 1500m
200 à 500 ft
< 800m
< 200 ft
Symboles :   Orages  Brouillard  Fortes neiges  Fortes précipitations  Vent > 20 kt
SIGMETs :   Divers  Orages  Givrage  Turbulence  Onde Orograph.  Cendres Volcan.







- Altitude de l'aérodrome : 59 ft
- Code IATA : TSF


LIPH - Treviso

DERNIER METAR :
  • 200120Z AUTO 25006KT 9999 OVC120/// 12/10 Q1013

METARs EXPIRÉS :
  • 200050Z AUTO 25004KT 9999 OVC120/// 12/10 Q1013
  • 200020Z AUTO 26003KT 9999 OVC120/// 12/11 Q1013
  • 192350Z AUTO VRB01KT 9999 OVC120/// 12/11 Q1013
  • 192320Z AUTO 23004KT 9999 OVC110/// 12/11 Q1013
  • 192250Z AUTO VRB01KT 9999 OVC110/// 12/11 Q1013

TAF TAF LIPH
Valide du 20 à 00h jusqu'au 21 à 00h UTC


192300Z 2000/2024 VRB05KT 8000 SCT030
Pas de NOTAMs connus pour ce terrain.
1 SIGMET publié pour la FIR Milano (LIMM) :
 
Turbulence forte
LIMM SIGMET 13 VALID 200000/200400 LIMM
LIMM MILANO FIR SEV TURB FCST E OF LINE N4613 E01012 - N4336 E01030 FL260/360 MOV E WKN=



MET'MAP, la Météo Aéronautique d'un coup d'oeil ! - Copyright ORBIFLY Décembre 2007 - Disclaimer

ORBIFLY MET'MAP TEAM :

Programmation & Développement : Alexandra Zaïnal
Conception & Développement : Baudouin d'Aumeries
Co-Programmation & Développement : Marc-Olivier Méhu
Soutien technique & logistique : Manuel Goepfert

Contact : metmap@orbifly.com




SOURCES & CREDITS :

   NOAA